Monday, October 15, 2018, 4:33 AM EDT
Back to Local

KFRG, Farmingdale Republic Airport

Location: Farmingdale, NY, United States Lat: 40.733
Local Time: 4:33 AM EDT ( 8:33 GMT) Lon: -73.417
Time Zone: US/Eastern Elev: 82 ft

Show me the last for .
Show Coded

Time T Td Feel RH Dir Speed Gust Alt SLP Vis Weather Sky Remarks
2018-10-15 03:53 51 47 - 85 - Calm - 30.19 30.19 10 BKN039 OVC048 None
2018-10-15 02:53 49 46 - 89 - Calm - 30.20 30.20 10 BKN040 OVC100 None
2018-10-15 01:53 48 45 - 89 - Calm - 30.21 30.21 10 BKN100 6-hr Min Temp (2am): 46.9°F
6-hr Max Temp (2am): 55.0°F
2018-10-15 00:53 49 45 - 86 - Calm - 30.23 30.23 10 CLR 24-hr Min Temp (1am): 39.9°F
24-hr Max Temp (1am): 57.9°F
2018-10-14 23:53 50 44 - 79 - Calm - 30.24 30.24 10 CLR None
2018-10-14 22:53 52 44 - 74 - Calm - 30.24 30.24 10 CLR None
2018-10-14 21:53 54 43 - 66 - Calm - 30.23 30.23 10 CLR None
2018-10-14 20:53 54 43 - 66 240° 5 - 30.23 30.23 10 SCT090 None
2018-10-14 19:53 55 43 - 63 240° 5 - 30.23 30.23 10 FEW110 6-hr Min Temp (8pm): 54.0°F
6-hr Max Temp (8pm): 57.9°F
2018-10-14 18:53 55 41 - 59 250° 3 - 30.21 30.21 10 FEW110 None
2018-10-14 17:53 56 41 - 57 230° 7 - 30.21 30.21 10 CLR None
2018-10-14 16:53 56 41 - 57 250° 9 - 30.22 30.21 10 CLR None
2018-10-14 15:53 57 40 - 52 260° 14 - 30.22 30.22 10 CLR None
2018-10-14 14:53 58 40 - 51 240° 12 - 30.23 30.22 10 CLR None
2018-10-14 13:53 57 38 - 48 250° 10 - 30.23 30.23 10 CLR 6-hr Min Temp (2pm): 45.0°F
6-hr Max Temp (2pm): 57.9°F
2018-10-14 12:53 58 39 - 49 220° 10 - 30.25 30.25 10 CLR None
2018-10-14 11:53 57 39 - 50 290° 7 - 30.26 30.26 10 CLR None
2018-10-14 10:53 56 41 - 57 300° 8 - 30.26 30.26 10 CLR None
2018-10-14 09:53 54 43 - 66 300° 5 - 30.24 30.24 10 CLR None
2018-10-14 08:53 50 44 - 79 - Calm - 30.22 30.22 10 CLR None
2018-10-14 07:53 45 42 - 89 - Calm - 30.22 30.22 10 CLR 24-hr Precip Total (8am): 0.04"
6-hr Min Temp (8am): 39.9°F
6-hr Max Temp (8am): 46.0°F
2018-10-14 06:53 44 41 - 88 - Calm - 30.20 30.20 10 CLR None
2018-10-14 05:53 42 39 - 88 - Calm - 30.19 30.19 10 CLR None
2018-10-14 04:53 42 39 - 88 - Calm - 30.17 30.17 10 CLR None

Support USWX by starting your Amazon purchase here.